createdAt,value
2022-10-12T00:00:48.364Z,9.40
2022-10-12T00:03:15.671Z,9.50
2022-10-12T00:05:42.742Z,9.50
2022-10-12T00:08:09.869Z,9.40
2022-10-12T00:10:43.945Z,9.40
2022-10-12T00:13:11.289Z,9.40
2022-10-12T00:15:41.360Z,9.30
2022-10-12T00:18:08.446Z,9.30
2022-10-12T00:20:35.485Z,8.40
2022-10-12T00:23:03.052Z,9.20
2022-10-12T00:25:30.097Z,9.20
2022-10-12T00:27:57.175Z,9.20
2022-10-12T00:30:24.304Z,9.30
2022-10-12T00:32:51.354Z,9.30
2022-10-12T00:35:18.481Z,9.30
2022-10-12T00:37:45.546Z,9.30
2022-10-12T00:40:12.789Z,9.30
2022-10-12T00:42:39.942Z,10.40
2022-10-12T00:45:08.746Z,9.20
2022-10-12T00:47:49.437Z,9.20
2022-10-12T00:50:21.008Z,9.20
2022-10-12T00:53:06.484Z,9.00
2022-10-12T00:55:36.958Z,8.00
2022-10-12T00:58:05.192Z,9.10
2022-10-12T01:00:32.602Z,9.10
2022-10-12T01:03:00.108Z,9.10
2022-10-12T01:05:27.878Z,9.10
2022-10-12T01:07:55.014Z,9.00
2022-10-12T01:10:22.058Z,9.10
2022-10-12T01:12:49.497Z,9.10
2022-10-12T01:15:17.570Z,9.20
2022-10-12T01:17:56.836Z,9.10
2022-10-12T01:20:42.809Z,9.20
2022-10-12T01:23:18.869Z,9.10
2022-10-12T01:26:04.553Z,9.20
2022-10-12T01:28:34.436Z,9.20
2022-10-12T01:31:07.827Z,9.20
2022-10-12T01:33:40.864Z,9.20
2022-10-12T01:36:28.250Z,9.90
2022-10-12T01:39:12.639Z,9.00
2022-10-12T01:41:39.795Z,9.00
2022-10-12T01:44:06.900Z,9.00
2022-10-12T01:46:33.961Z,10.50
2022-10-12T01:49:01.808Z,8.90
2022-10-12T01:51:28.836Z,8.90
2022-10-12T01:53:55.867Z,8.90
2022-10-12T01:56:28.375Z,8.80
2022-10-12T01:59:15.670Z,8.80
2022-10-12T02:01:42.715Z,8.80
2022-10-12T02:04:15.576Z,8.80
2022-10-12T02:06:47.461Z,8.70
2022-10-12T02:09:24.029Z,8.70
2022-10-12T02:11:52.461Z,8.70
2022-10-12T02:14:21.472Z,9.30
2022-10-12T02:16:51.258Z,8.70
2022-10-12T02:19:20.688Z,8.60
2022-10-12T02:21:48.951Z,8.70
2022-10-12T02:24:17.507Z,8.80
2022-10-12T02:26:45.280Z,8.80
2022-10-12T02:29:17.573Z,8.70
2022-10-12T02:31:53.611Z,8.70
2022-10-12T02:34:26.258Z,8.70
2022-10-12T02:36:53.290Z,9.30
2022-10-12T02:39:23.972Z,8.70
2022-10-12T02:41:53.617Z,8.70
2022-10-12T02:44:23.235Z,10.00
2022-10-12T02:46:51.793Z,8.70
2022-10-12T02:49:19.931Z,8.60
2022-10-12T02:51:47.209Z,8.60
2022-10-12T02:54:15.141Z,8.50
2022-10-12T02:56:43.267Z,9.10
2022-10-12T02:59:10.324Z,8.40
2022-10-12T03:01:37.457Z,8.40
2022-10-12T03:04:04.741Z,7.80
2022-10-12T03:06:31.840Z,8.30
2022-10-12T03:08:58.918Z,8.40
2022-10-12T03:11:26.036Z,8.30
2022-10-12T03:13:56.096Z,8.30
2022-10-12T03:16:23.586Z,8.30
2022-10-12T03:18:51.775Z,8.20
2022-10-12T03:21:18.848Z,8.60
2022-10-12T03:23:45.931Z,8.20
2022-10-12T03:26:13.043Z,8.20
2022-10-12T03:28:40.155Z,8.20
2022-10-12T03:31:07.225Z,8.30
2022-10-12T03:33:34.276Z,7.40
2022-10-12T03:36:01.437Z,8.30
2022-10-12T03:38:28.802Z,8.40
2022-10-12T03:40:55.879Z,9.70
2022-10-12T03:43:23.080Z,8.50
2022-10-12T03:45:50.224Z,8.40
2022-10-12T03:48:17.267Z,8.50
2022-10-12T03:50:48.560Z,8.60
2022-10-12T03:53:15.868Z,8.60
2022-10-12T03:55:43.002Z,8.60
2022-10-12T03:58:10.138Z,8.60
2022-10-12T04:00:37.195Z,8.60
2022-10-12T04:03:04.661Z,8.60
2022-10-12T04:05:32.054Z,8.70
2022-10-12T04:07:59.372Z,8.70
2022-10-12T04:10:26.522Z,9.20
2022-10-12T04:12:53.654Z,8.70
2022-10-12T04:17:53.267Z,8.80
2022-10-12T04:20:20.374Z,8.80
2022-10-12T04:22:47.482Z,8.90
2022-10-12T04:25:14.569Z,8.80
2022-10-12T04:27:41.672Z,8.90
2022-10-12T04:30:09.100Z,8.90
2022-10-12T04:32:36.185Z,8.90
2022-10-12T04:35:03.430Z,9.00
2022-10-12T04:37:30.469Z,9.00
2022-10-12T04:39:57.631Z,9.00
2022-10-12T04:42:24.670Z,9.00
2022-10-12T04:44:51.728Z,9.00
2022-10-12T04:47:18.860Z,9.10
2022-10-12T04:49:45.975Z,9.10
2022-10-12T04:52:13.136Z,9.00
2022-10-12T04:54:40.348Z,9.10
2022-10-12T04:57:07.420Z,9.10
2022-10-12T04:59:34.465Z,9.10
2022-10-12T05:02:01.495Z,9.10
2022-10-12T05:04:28.645Z,9.10
2022-10-12T05:06:55.798Z,9.20
2022-10-12T05:09:22.858Z,8.30
2022-10-12T05:11:49.921Z,9.20
2022-10-12T05:14:16.991Z,9.40
2022-10-12T05:16:44.066Z,9.20
2022-10-12T05:19:11.110Z,9.20
2022-10-12T05:21:40.314Z,7.90
2022-10-12T05:24:07.457Z,9.10
2022-10-12T05:26:34.702Z,9.10
2022-10-12T05:29:01.905Z,9.10
2022-10-12T05:31:29.037Z,9.10
2022-10-12T05:33:56.172Z,9.10
2022-10-12T05:36:23.252Z,9.10
2022-10-12T05:38:50.301Z,9.10
2022-10-12T05:41:17.402Z,9.10
2022-10-12T05:43:44.522Z,10.00
2022-10-12T05:46:14.470Z,9.10
2022-10-12T05:48:41.785Z,9.20
2022-10-12T05:51:08.825Z,9.20
2022-10-12T05:53:35.917Z,9.20
2022-10-12T05:56:02.963Z,9.20
2022-10-12T05:58:30.426Z,9.20
2022-10-12T06:01:12.010Z,9.20
2022-10-12T06:03:39.448Z,9.20
2022-10-12T06:06:07.061Z,9.20
2022-10-12T06:08:34.472Z,9.20
2022-10-12T06:11:01.776Z,9.20
2022-10-12T06:13:28.860Z,9.20
2022-10-12T06:15:55.993Z,9.20
2022-10-12T06:18:23.137Z,9.20
2022-10-12T06:20:56.483Z,9.30
2022-10-12T06:23:36.114Z,9.30
2022-10-12T06:26:03.312Z,9.30
2022-10-12T06:28:30.470Z,9.30
2022-10-12T06:30:58.608Z,9.30
2022-10-12T06:33:27.089Z,9.30
2022-10-12T06:35:54.705Z,9.30
2022-10-12T06:38:22.118Z,9.30
2022-10-12T06:40:49.215Z,9.30
2022-10-12T06:43:16.301Z,9.90
2022-10-12T06:45:43.380Z,9.40
2022-10-12T06:48:12.897Z,9.40
2022-10-12T06:50:43.305Z,9.40
2022-10-12T06:53:10.414Z,9.40
2022-10-12T06:55:39.428Z,9.50
2022-10-12T06:58:06.487Z,9.50
2022-10-12T07:00:34.011Z,9.60
2022-10-12T07:03:01.085Z,9.50
2022-10-12T07:05:28.182Z,9.50
2022-10-12T07:07:55.325Z,9.60
2022-10-12T07:10:22.696Z,9.50
2022-10-12T07:12:49.723Z,9.60
2022-10-12T07:15:16.837Z,9.60
2022-10-12T07:17:43.907Z,9.00
2022-10-12T07:20:11.046Z,9.60
2022-10-12T07:22:38.188Z,9.60
2022-10-12T07:25:05.476Z,9.70
2022-10-12T07:27:32.574Z,9.70
2022-10-12T07:29:59.661Z,9.70
2022-10-12T07:32:26.743Z,9.80
2022-10-12T07:34:53.855Z,9.80
2022-10-12T07:37:20.924Z,10.60
2022-10-12T07:39:48.626Z,9.80
2022-10-12T07:42:19.362Z,9.80
2022-10-12T07:44:46.825Z,9.80
2022-10-12T07:47:13.943Z,9.90
2022-10-12T07:49:40.989Z,9.90
2022-10-12T07:52:08.097Z,9.90
2022-10-12T07:54:35.179Z,9.90
2022-10-12T07:57:02.329Z,10.00
2022-10-12T07:59:29.452Z,10.00
2022-10-12T08:01:56.541Z,10.00
2022-10-12T08:04:23.634Z,10.10
2022-10-12T08:06:50.773Z,10.10
2022-10-12T08:09:17.817Z,10.10
2022-10-12T08:11:45.162Z,10.10
2022-10-12T08:14:13.577Z,10.20
2022-10-12T08:16:41.618Z,10.20
2022-10-12T08:19:08.789Z,10.30
2022-10-12T08:21:35.924Z,10.30
2022-10-12T08:24:03.022Z,10.30
2022-10-12T08:26:30.373Z,10.30
2022-10-12T08:28:57.575Z,10.30
2022-10-12T08:31:24.740Z,10.30
2022-10-12T08:33:51.852Z,10.30
2022-10-12T08:36:19.143Z,10.30
2022-10-12T08:38:50.568Z,10.40
2022-10-12T08:41:20.553Z,10.40
2022-10-12T08:43:56.846Z,10.40
2022-10-12T08:46:25.549Z,10.50
2022-10-12T08:48:59.404Z,10.60
2022-10-12T08:51:28.270Z,10.70
2022-10-12T08:54:15.597Z,10.60
2022-10-12T08:56:43.810Z,10.70
2022-10-12T08:59:14.987Z,10.70
2022-10-12T09:02:01.056Z,10.70
2022-10-12T09:04:37.011Z,10.70
2022-10-12T09:07:22.501Z,10.70
2022-10-12T09:10:03.481Z,10.80
2022-10-12T09:12:33.431Z,10.80
2022-10-12T09:15:02.735Z,10.90
2022-10-12T09:17:32.900Z,11.00
2022-10-12T09:20:07.238Z,12.00
2022-10-12T09:22:35.020Z,11.00
2022-10-12T09:25:02.967Z,11.10
2022-10-12T09:27:31.280Z,11.20
2022-10-12T09:30:00.453Z,11.20
2022-10-12T09:32:35.896Z,11.30
2022-10-12T09:35:04.140Z,11.40
2022-10-12T09:37:32.838Z,11.40
2022-10-12T09:40:00.833Z,11.40
2022-10-12T09:42:28.144Z,11.40
2022-10-12T09:44:57.628Z,11.30
2022-10-12T09:47:29.591Z,11.50
2022-10-12T09:50:00.875Z,11.50
2022-10-12T09:52:30.107Z,11.60
2022-10-12T09:55:04.834Z,11.60
2022-10-12T09:57:34.434Z,11.60
2022-10-12T10:00:02.943Z,11.70
2022-10-12T10:02:30.103Z,11.70
2022-10-12T10:05:13.833Z,11.80
2022-10-12T10:07:40.881Z,11.90
2022-10-12T10:10:29.431Z,12.00
2022-10-12T10:12:59.058Z,12.10
2022-10-12T10:15:30.591Z,11.70
2022-10-12T10:17:59.820Z,12.40
2022-10-12T10:20:29.458Z,12.50
2022-10-12T10:22:56.876Z,12.60
2022-10-12T10:25:24.501Z,12.70
2022-10-12T10:28:11.123Z,12.90
2022-10-12T10:30:41.236Z,13.00
2022-10-12T10:33:19.127Z,13.10
2022-10-12T10:35:58.352Z,13.20
2022-10-12T10:38:25.720Z,13.30
2022-10-12T10:40:54.679Z,13.40
2022-10-12T10:43:25.294Z,13.50
2022-10-12T10:45:54.620Z,13.50
2022-10-12T10:48:23.298Z,13.60
2022-10-12T10:51:00.288Z,13.60
2022-10-12T10:53:30.500Z,13.70
2022-10-12T10:55:57.551Z,13.80
2022-10-12T10:58:28.109Z,13.90
2022-10-12T11:00:57.678Z,14.00
2022-10-12T11:03:28.402Z,14.00
2022-10-12T11:06:04.212Z,14.20
2022-10-12T11:08:32.061Z,14.30
2022-10-12T11:11:03.886Z,14.40
2022-10-12T11:13:35.989Z,14.40
2022-10-12T11:16:21.658Z,14.50
2022-10-12T11:18:49.530Z,14.60
2022-10-12T11:21:42.773Z,14.60
2022-10-12T11:24:12.833Z,14.60
2022-10-12T11:26:45.020Z,14.60
2022-10-12T11:29:13.662Z,14.70
2022-10-12T11:32:03.470Z,14.70
2022-10-12T11:34:33.166Z,14.70
2022-10-12T11:37:18.678Z,14.70
2022-10-12T11:39:48.910Z,14.90
2022-10-12T11:42:24.109Z,14.90
2022-10-12T11:44:51.812Z,14.90
2022-10-12T11:47:39.743Z,14.90
2022-10-12T11:50:15.013Z,14.80
2022-10-12T11:52:44.501Z,14.70
2022-10-12T11:55:17.421Z,14.70
2022-10-12T11:57:44.652Z,14.60
2022-10-12T12:00:18.305Z,14.60
2022-10-12T12:02:49.025Z,14.60
2022-10-12T12:05:17.322Z,15.50
2022-10-12T12:07:47.355Z,14.70
2022-10-12T12:10:23.437Z,14.70
2022-10-12T12:13:11.425Z,14.70
2022-10-12T12:15:39.619Z,14.80
2022-10-12T12:18:13.965Z,14.80
2022-10-12T12:20:43.906Z,14.90
2022-10-12T12:23:19.776Z,14.80
2022-10-12T12:25:47.513Z,15.00
2022-10-12T12:28:20.108Z,15.00
2022-10-12T12:31:01.233Z,15.10
2022-10-12T12:33:33.327Z,15.10
2022-10-12T12:36:00.432Z,15.10
2022-10-12T12:38:32.270Z,15.10
2022-10-12T12:41:05.342Z,15.10
2022-10-12T12:43:32.403Z,15.10
2022-10-12T12:46:00.457Z,15.00
2022-10-12T12:48:39.955Z,15.20
2022-10-12T12:51:20.735Z,15.30
2022-10-12T12:53:49.193Z,15.30
2022-10-12T12:56:22.066Z,15.40
2022-10-12T12:58:58.558Z,14.80
2022-10-12T13:01:38.505Z,15.40
2022-10-12T13:04:17.507Z,15.50
2022-10-12T13:07:03.360Z,15.70
2022-10-12T13:09:48.971Z,15.50
2022-10-12T13:12:25.404Z,15.50
2022-10-12T13:15:15.517Z,15.50
2022-10-12T13:18:34.644Z,15.50
2022-10-12T13:21:06.903Z,15.50
2022-10-12T13:23:34.158Z,15.50
2022-10-12T13:26:03.979Z,15.50
2022-10-12T13:28:32.787Z,15.60
2022-10-12T13:31:06.369Z,15.50
2022-10-12T13:33:44.239Z,15.50
2022-10-12T13:36:17.091Z,15.50
2022-10-12T13:38:44.171Z,15.50
2022-10-12T13:41:13.833Z,15.50
2022-10-12T13:43:46.733Z,15.60
2022-10-12T13:46:34.018Z,15.50
2022-10-12T13:49:01.912Z,15.60
2022-10-12T13:51:30.107Z,15.60
2022-10-12T13:53:57.707Z,15.50
2022-10-12T13:56:26.280Z,15.50
2022-10-12T13:58:57.923Z,15.50
2022-10-12T14:01:25.612Z,15.50
2022-10-12T14:03:52.780Z,15.50
2022-10-12T14:06:30.067Z,15.50
2022-10-12T14:08:58.919Z,15.50
2022-10-12T14:11:26.652Z,15.50
2022-10-12T14:13:55.264Z,15.50
2022-10-12T14:16:22.364Z,15.50
2022-10-12T14:18:50.883Z,15.50
2022-10-12T14:21:26.775Z,15.50
2022-10-12T14:23:55.157Z,15.10
2022-10-12T14:26:32.136Z,15.60
2022-10-12T14:29:00.423Z,15.50
2022-10-12T14:31:46.226Z,15.50
2022-10-12T14:34:23.394Z,15.60
2022-10-12T14:37:19.718Z,15.60
2022-10-12T14:39:47.973Z,15.60
2022-10-12T14:42:31.807Z,15.60
2022-10-12T14:44:59.368Z,15.60
2022-10-12T14:47:34.759Z,15.60
2022-10-12T14:50:07.868Z,15.60
2022-10-12T14:52:39.696Z,15.60
2022-10-12T14:55:07.221Z,15.60
2022-10-12T14:57:34.262Z,15.60
2022-10-12T15:00:01.368Z,15.10
2022-10-12T15:02:32.809Z,15.60
2022-10-12T15:04:59.907Z,15.50
2022-10-12T15:07:31.326Z,15.50
2022-10-12T15:10:00.855Z,15.40
2022-10-12T15:12:30.423Z,15.40
2022-10-12T15:14:59.185Z,15.30
2022-10-12T15:17:26.569Z,15.30
2022-10-12T15:19:53.623Z,14.40
2022-10-12T15:22:22.722Z,15.20
2022-10-12T15:24:50.512Z,15.10
2022-10-12T15:27:17.608Z,15.10
2022-10-12T15:29:45.733Z,15.10
2022-10-12T15:32:13.513Z,15.10
2022-10-12T15:34:40.754Z,15.10
2022-10-12T15:37:09.268Z,15.00
2022-10-12T15:39:36.748Z,15.00
2022-10-12T15:42:04.003Z,15.00
2022-10-12T15:44:31.056Z,14.90
2022-10-12T15:47:00.622Z,15.00
2022-10-12T15:49:27.801Z,15.00
2022-10-12T15:51:55.570Z,15.00
2022-10-12T15:54:22.649Z,14.90
2022-10-12T15:56:49.765Z,14.90
2022-10-12T15:59:16.899Z,15.60
2022-10-12T16:01:44.840Z,14.90
2022-10-12T16:04:13.739Z,14.90
2022-10-12T16:06:40.925Z,14.90
2022-10-12T16:09:08.004Z,16.10
2022-10-12T16:11:35.101Z,14.80
2022-10-12T16:14:02.294Z,14.80
2022-10-12T16:16:31.359Z,14.70
2022-10-12T16:18:58.508Z,14.70
2022-10-12T16:21:25.651Z,14.70
2022-10-12T16:23:52.967Z,14.70
2022-10-12T16:26:20.109Z,14.70
2022-10-12T16:28:47.276Z,15.10
2022-10-12T16:31:16.127Z,14.60
2022-10-12T16:33:43.649Z,14.60
2022-10-12T16:36:15.141Z,14.60
2022-10-12T16:38:42.934Z,14.60
2022-10-12T16:41:14.379Z,13.20
2022-10-12T16:43:41.830Z,14.60
2022-10-12T16:46:08.976Z,14.60
2022-10-12T16:48:36.977Z,14.50
2022-10-12T16:51:07.825Z,14.50
2022-10-12T16:53:34.993Z,14.50
2022-10-12T16:56:02.499Z,14.50
2022-10-12T16:58:29.674Z,14.50
2022-10-12T17:00:56.956Z,14.50
2022-10-12T17:03:24.972Z,14.40
2022-10-12T17:05:59.812Z,14.40
2022-10-12T17:08:26.979Z,14.40
2022-10-12T17:10:54.088Z,14.30
2022-10-12T17:13:21.205Z,14.30
2022-10-12T17:15:48.488Z,14.70
2022-10-12T17:18:15.577Z,14.30
2022-10-12T17:20:42.626Z,14.20
2022-10-12T17:23:09.791Z,14.20
2022-10-12T17:25:36.848Z,14.60
2022-10-12T17:28:04.024Z,14.20
2022-10-12T17:30:31.151Z,14.50
2022-10-12T17:32:58.332Z,14.20
2022-10-12T17:35:25.435Z,14.20
2022-10-12T17:37:52.516Z,15.70
2022-10-12T17:40:19.780Z,14.20
2022-10-12T17:42:46.949Z,14.20
2022-10-12T17:45:14.153Z,14.20
2022-10-12T17:47:41.251Z,14.20
2022-10-12T17:50:08.593Z,14.20
2022-10-12T17:52:39.578Z,14.10
2022-10-12T17:55:09.379Z,14.10
2022-10-12T17:57:42.293Z,14.10
2022-10-12T18:00:09.785Z,14.10
2022-10-12T18:02:36.881Z,14.10
2022-10-12T18:05:04.155Z,14.10
2022-10-12T18:07:31.301Z,14.10
2022-10-12T18:12:30.474Z,14.10
2022-10-12T18:14:57.551Z,14.00
2022-10-12T18:17:25.077Z,14.10
2022-10-12T18:19:52.260Z,14.10
2022-10-12T18:22:19.868Z,14.00
2022-10-12T18:24:48.983Z,14.00
2022-10-12T18:27:16.043Z,13.70
2022-10-12T18:29:43.408Z,14.00
2022-10-12T18:32:11.318Z,14.10
2022-10-12T18:34:41.011Z,14.80
2022-10-12T18:37:08.123Z,14.00
2022-10-12T18:39:35.257Z,14.00
2022-10-12T18:42:02.438Z,14.00
2022-10-12T18:44:29.626Z,14.00
2022-10-12T18:46:56.702Z,14.00
2022-10-12T18:49:23.877Z,14.90
2022-10-12T18:51:52.697Z,14.00
2022-10-12T18:54:19.908Z,14.10
2022-10-12T18:56:47.086Z,14.40
2022-10-12T18:59:17.835Z,13.40
2022-10-12T19:01:45.406Z,14.00
2022-10-12T19:04:12.631Z,14.00
2022-10-12T19:06:41.629Z,14.00
2022-10-12T19:09:10.736Z,14.00
2022-10-12T19:11:37.891Z,14.00
2022-10-12T19:14:06.406Z,14.00
2022-10-12T19:16:34.391Z,14.80
2022-10-12T19:19:02.759Z,14.00
2022-10-12T19:21:30.732Z,14.00
2022-10-12T19:23:57.857Z,13.90
2022-10-12T19:26:26.248Z,14.00
2022-10-12T19:28:54.273Z,13.90
2022-10-12T19:53:05.299Z,13.90
2022-10-12T19:55:34.077Z,13.90
2022-10-12T19:58:01.278Z,13.90
2022-10-12T20:00:28.776Z,13.80
2022-10-12T20:02:55.886Z,13.80
2022-10-12T20:05:23.105Z,13.80
2022-10-12T20:07:50.227Z,13.80
2022-10-12T20:10:17.385Z,13.70
2022-10-12T20:12:44.581Z,13.80
2022-10-12T20:15:11.754Z,13.70
2022-10-12T20:17:39.094Z,13.70
2022-10-12T20:20:07.345Z,13.70
2022-10-12T20:22:34.660Z,13.70
2022-10-12T20:25:05.638Z,13.70
2022-10-12T20:27:36.718Z,13.00
2022-10-12T20:30:04.537Z,13.70
2022-10-12T20:32:33.553Z,13.70
2022-10-12T20:35:01.800Z,13.70
2022-10-12T20:37:28.903Z,14.10
2022-10-12T20:39:55.957Z,13.60
2022-10-12T20:42:23.422Z,13.70
2022-10-12T20:44:50.988Z,13.70
2022-10-12T20:47:18.475Z,13.70
2022-10-12T20:49:47.023Z,13.80
2022-10-12T20:52:14.194Z,13.70
2022-10-12T20:54:41.410Z,13.70
2022-10-12T20:57:08.580Z,13.70
2022-10-12T20:59:37.186Z,13.70
2022-10-12T21:02:04.379Z,13.70
2022-10-12T21:04:36.074Z,13.00
2022-10-12T21:07:05.317Z,13.60
2022-10-12T21:09:32.432Z,13.70
2022-10-12T21:11:59.583Z,14.60
2022-10-12T21:14:26.665Z,13.70
2022-10-12T21:16:53.757Z,13.70
2022-10-12T21:19:20.844Z,13.70
2022-10-12T21:21:47.970Z,13.70
2022-10-12T21:24:15.153Z,13.70
2022-10-12T21:26:42.282Z,13.70
2022-10-12T21:29:09.644Z,13.80
2022-10-12T21:31:36.688Z,14.40
2022-10-12T21:34:05.215Z,13.70
2022-10-12T21:36:33.767Z,13.80
2022-10-12T21:39:01.030Z,13.70
2022-10-12T21:41:29.068Z,13.60
2022-10-12T21:43:56.498Z,13.70
2022-10-12T21:46:25.180Z,13.70
2022-10-12T21:48:52.766Z,13.70
2022-10-12T21:51:20.933Z,13.40
2022-10-12T21:53:49.743Z,13.70
2022-10-12T21:56:21.423Z,13.70
2022-10-12T21:58:49.731Z,13.70
2022-10-12T22:01:18.276Z,13.70
2022-10-12T22:03:45.947Z,13.70
2022-10-12T22:06:19.795Z,13.70
2022-10-12T22:08:54.352Z,13.70
2022-10-12T22:11:21.787Z,13.70
2022-10-12T22:13:48.880Z,13.80
2022-10-12T22:16:17.250Z,13.80
2022-10-12T22:18:44.739Z,13.50
2022-10-12T22:21:16.157Z,13.70
2022-10-12T22:23:43.608Z,13.70
2022-10-12T22:26:12.137Z,13.80
2022-10-12T22:28:39.417Z,13.80
2022-10-12T22:31:07.422Z,13.80
2022-10-12T22:33:34.873Z,13.80
2022-10-12T22:36:02.431Z,13.80
2022-10-12T22:38:29.626Z,13.80
2022-10-12T22:41:06.830Z,13.80
2022-10-12T22:43:34.875Z,13.80
2022-10-12T22:46:02.289Z,13.80
2022-10-12T22:48:29.727Z,14.10
2022-10-12T22:50:56.806Z,13.80
2022-10-12T22:53:25.110Z,13.80
2022-10-12T22:56:00.050Z,13.80
2022-10-12T22:58:27.406Z,13.80
2022-10-12T23:01:23.637Z,13.80
2022-10-12T23:03:50.751Z,14.20
2022-10-12T23:06:18.568Z,13.80
2022-10-12T23:08:46.093Z,13.80
2022-10-12T23:11:18.714Z,13.80
2022-10-12T23:13:46.174Z,13.80
2022-10-12T23:16:14.524Z,13.80
2022-10-12T23:18:41.657Z,13.80
2022-10-12T23:21:10.104Z,13.80
2022-10-12T23:23:37.883Z,14.50
2022-10-12T23:26:06.442Z,14.30
2022-10-12T23:28:34.138Z,13.80
2022-10-12T23:31:05.217Z,13.80
2022-10-12T23:33:32.311Z,13.80
2022-10-12T23:36:00.398Z,13.80
2022-10-12T23:38:31.894Z,13.80
2022-10-12T23:40:59.161Z,14.60
2022-10-12T23:43:27.146Z,13.80
2022-10-12T23:45:54.509Z,13.80
2022-10-12T23:48:21.734Z,13.80
2022-10-12T23:50:48.827Z,13.10
2022-10-12T23:53:15.942Z,13.70
2022-10-12T23:55:43.047Z,13.70
2022-10-12T23:58:10.103Z,13.70
